Decoded Metar for LCPH (PAPHOS in CYPRUS) (IATA:PFO) | Meteo·Mobile Aviation Weather
aviador You're here:

LCPH Decoded Metar

PAPHOS in CYPRUS
Report Time2018-10-19 08:30:00
UTC Time2018-10-19 08:38:35
Flight Rules mvfr MVFR
Wind260° at 07 kt
W.Decomp.*RWY 29: 5.8 kt HW 3.9 kt LCW
W.Rank260° ranks 8
Current wind is below 260° avg. (9.2)
Visibility6000 m
Phenomena:N/A
Clouds:N/A
Expected CloudBase > 2,400 ft AGL from Temp-Dew spread
CeilingNone
Temp27°C (ISA +12)
Dew Point21°C (70% RH)
Heat Index28.9°C
QNH1013 hPa
Density Alt1,742 ft
Elevation26 ft
Report Wrong Elevation
Raw Report
METAR LCPH 190830Z 26007KT 220V280 6000 NSC 27/21 Q1013=

Extra information for LCPH:More info

Metar Taf Metar & Taf Last 4 Metars F.Rules Stats Wind Profile Meteogram Temp Stats Airport Information Weather charts Add Link Nearby VenuesMetar ALERT Operation Metar Decoded Social comments